sensor_id;sensor_type;location;lat;lon;timestamp;temperature;humidity
25616;DHT22;13482;48.234;13.006;2023-05-23T00:02:05;19.30;62.50
25616;DHT22;13482;48.234;13.006;2023-05-23T00:04:35;19.30;62.60
25616;DHT22;13482;48.234;13.006;2023-05-23T00:07:03;19.30;62.70
25616;DHT22;13482;48.234;13.006;2023-05-23T00:09:31;19.20;62.70
25616;DHT22;13482;48.234;13.006;2023-05-23T00:11:59;19.20;62.60
25616;DHT22;13482;48.234;13.006;2023-05-23T00:14:27;19.20;62.60
25616;DHT22;13482;48.234;13.006;2023-05-23T00:17:00;19.10;62.70
25616;DHT22;13482;48.234;13.006;2023-05-23T00:19:27;19.10;62.80
25616;DHT22;13482;48.234;13.006;2023-05-23T00:21:55;19.00;63.20
25616;DHT22;13482;48.234;13.006;2023-05-23T00:24:22;19.00;63.30
25616;DHT22;13482;48.234;13.006;2023-05-23T00:26:50;18.90;63.30
25616;DHT22;13482;48.234;13.006;2023-05-23T00:29:17;18.90;63.70
25616;DHT22;13482;48.234;13.006;2023-05-23T00:31:45;18.80;63.80
25616;DHT22;13482;48.234;13.006;2023-05-23T00:34:14;18.80;64.00
25616;DHT22;13482;48.234;13.006;2023-05-23T00:36:45;18.70;64.00
25616;DHT22;13482;48.234;13.006;2023-05-23T00:39:16;18.70;64.00
25616;DHT22;13482;48.234;13.006;2023-05-23T00:41:48;18.70;64.00
25616;DHT22;13482;48.234;13.006;2023-05-23T00:44:18;18.70;64.00
25616;DHT22;13482;48.234;13.006;2023-05-23T00:46:54;18.70;64.10
25616;DHT22;13482;48.234;13.006;2023-05-23T00:49:23;18.70;64.60
25616;DHT22;13482;48.234;13.006;2023-05-23T00:51:54;18.60;64.00
25616;DHT22;13482;48.234;13.006;2023-05-23T00:54:28;18.60;64.00
25616;DHT22;13482;48.234;13.006;2023-05-23T00:56:59;18.60;64.40
25616;DHT22;13482;48.234;13.006;2023-05-23T00:59:27;18.60;63.90
25616;DHT22;13482;48.234;13.006;2023-05-23T01:01:56;18.50;64.10
25616;DHT22;13482;48.234;13.006;2023-05-23T01:04:26;18.50;64.30
25616;DHT22;13482;48.234;13.006;2023-05-23T01:06:55;18.50;64.30
25616;DHT22;13482;48.234;13.006;2023-05-23T01:09:25;18.40;64.50
25616;DHT22;13482;48.234;13.006;2023-05-23T01:12:28;18.40;64.40
25616;DHT22;13482;48.234;13.006;2023-05-23T01:15:10;18.40;66.20
25616;DHT22;13482;48.234;13.006;2023-05-23T01:20:42;18.40;66.30
25616;DHT22;13482;48.234;13.006;2023-05-23T01:26:02;18.30;65.10
25616;DHT22;13482;48.234;13.006;2023-05-23T01:29:06;18.30;65.00
25616;DHT22;13482;48.234;13.006;2023-05-23T01:31:40;18.30;65.30
25616;DHT22;13482;48.234;13.006;2023-05-23T01:34:15;18.30;65.10
25616;DHT22;13482;48.234;13.006;2023-05-23T01:36:44;18.30;65.30
25616;DHT22;13482;48.234;13.006;2023-05-23T01:39:13;18.30;65.10
25616;DHT22;13482;48.234;13.006;2023-05-23T01:41:40;18.30;65.10
25616;DHT22;13482;48.234;13.006;2023-05-23T01:44:08;18.20;65.20
25616;DHT22;13482;48.234;13.006;2023-05-23T01:46:36;18.20;65.30
25616;DHT22;13482;48.234;13.006;2023-05-23T01:49:07;18.20;65.30
25616;DHT22;13482;48.234;13.006;2023-05-23T01:51:37;18.20;65.40
25616;DHT22;13482;48.234;13.006;2023-05-23T01:54:06;18.20;65.30
25616;DHT22;13482;48.234;13.006;2023-05-23T01:56:34;18.20;65.40
25616;DHT22;13482;48.234;13.006;2023-05-23T01:59:02;18.10;65.50
25616;DHT22;13482;48.234;13.006;2023-05-23T02:01:30;18.10;65.70
25616;DHT22;13482;48.234;13.006;2023-05-23T02:03:58;18.10;65.90
25616;DHT22;13482;48.234;13.006;2023-05-23T02:06:25;18.00;65.90
25616;DHT22;13482;48.234;13.006;2023-05-23T02:08:53;18.00;66.10
25616;DHT22;13482;48.234;13.006;2023-05-23T02:11:20;17.90;66.00
25616;DHT22;13482;48.234;13.006;2023-05-23T02:13:48;17.90;65.90
25616;DHT22;13482;48.234;13.006;2023-05-23T02:16:16;17.80;66.00
25616;DHT22;13482;48.234;13.006;2023-05-23T02:18:44;17.80;66.20
25616;DHT22;13482;48.234;13.006;2023-05-23T02:21:12;17.80;66.10
25616;DHT22;13482;48.234;13.006;2023-05-23T02:23:39;17.70;66.00
25616;DHT22;13482;48.234;13.006;2023-05-23T02:26:07;17.70;66.00
25616;DHT22;13482;48.234;13.006;2023-05-23T02:28:34;17.60;66.10
25616;DHT22;13482;48.234;13.006;2023-05-23T02:31:02;17.60;66.00
25616;DHT22;13482;48.234;13.006;2023-05-23T02:33:30;17.60;66.10
25616;DHT22;13482;48.234;13.006;2023-05-23T02:35:57;17.60;66.30
25616;DHT22;13482;48.234;13.006;2023-05-23T02:38:25;17.60;66.30
25616;DHT22;13482;48.234;13.006;2023-05-23T02:40:53;17.60;66.30
25616;DHT22;13482;48.234;13.006;2023-05-23T02:43:23;17.60;66.40
25616;DHT22;13482;48.234;13.006;2023-05-23T02:45:50;17.50;66.30
25616;DHT22;13482;48.234;13.006;2023-05-23T02:48:19;17.50;66.40
25616;DHT22;13482;48.234;13.006;2023-05-23T02:50:47;17.50;66.50
25616;DHT22;13482;48.234;13.006;2023-05-23T02:53:14;17.50;66.50
25616;DHT22;13482;48.234;13.006;2023-05-23T02:55:42;17.50;66.60
25616;DHT22;13482;48.234;13.006;2023-05-23T02:58:10;17.50;66.60
25616;DHT22;13482;48.234;13.006;2023-05-23T03:00:37;17.40;66.60
25616;DHT22;13482;48.234;13.006;2023-05-23T03:03:05;17.40;66.70
25616;DHT22;13482;48.234;13.006;2023-05-23T03:05:33;17.40;66.80
25616;DHT22;13482;48.234;13.006;2023-05-23T03:08:00;17.30;66.90
25616;DHT22;13482;48.234;13.006;2023-05-23T03:10:27;17.30;67.00
25616;DHT22;13482;48.234;13.006;2023-05-23T03:12:54;17.30;67.00
25616;DHT22;13482;48.234;13.006;2023-05-23T03:15:22;17.20;67.20
25616;DHT22;13482;48.234;13.006;2023-05-23T03:17:50;17.20;67.40
25616;DHT22;13482;48.234;13.006;2023-05-23T03:20:18;17.20;67.50
25616;DHT22;13482;48.234;13.006;2023-05-23T03:22:45;17.20;67.60
25616;DHT22;13482;48.234;13.006;2023-05-23T03:25:14;17.20;67.70
25616;DHT22;13482;48.234;13.006;2023-05-23T03:27:42;17.20;68.00
25616;DHT22;13482;48.234;13.006;2023-05-23T03:30:11;17.10;67.80
25616;DHT22;13482;48.234;13.006;2023-05-23T03:32:39;17.10;67.90
25616;DHT22;13482;48.234;13.006;2023-05-23T03:35:07;17.20;68.00
25616;DHT22;13482;48.234;13.006;2023-05-23T03:37:35;17.20;68.10
25616;DHT22;13482;48.234;13.006;2023-05-23T03:40:03;17.10;68.30
25616;DHT22;13482;48.234;13.006;2023-05-23T03:42:33;17.20;68.40
25616;DHT22;13482;48.234;13.006;2023-05-23T03:45:00;17.10;68.50
25616;DHT22;13482;48.234;13.006;2023-05-23T03:47:28;17.10;68.50
25616;DHT22;13482;48.234;13.006;2023-05-23T03:49:55;17.20;68.40
25616;DHT22;13482;48.234;13.006;2023-05-23T03:52:23;17.20;68.40
25616;DHT22;13482;48.234;13.006;2023-05-23T03:54:50;17.20;68.30
25616;DHT22;13482;48.234;13.006;2023-05-23T03:57:18;17.20;68.30
25616;DHT22;13482;48.234;13.006;2023-05-23T03:59:45;17.20;68.30
25616;DHT22;13482;48.234;13.006;2023-05-23T04:02:13;17.20;68.40
25616;DHT22;13482;48.234;13.006;2023-05-23T04:04:40;17.30;68.70
25616;DHT22;13482;48.234;13.006;2023-05-23T04:07:08;17.30;68.70
25616;DHT22;13482;48.234;13.006;2023-05-23T04:09:35;17.30;68.80
25616;DHT22;13482;48.234;13.006;2023-05-23T04:12:03;17.40;68.90
25616;DHT22;13482;48.234;13.006;2023-05-23T04:14:31;17.40;68.90
25616;DHT22;13482;48.234;13.006;2023-05-23T04:16:59;17.50;68.90
25616;DHT22;13482;48.234;13.006;2023-05-23T04:19:27;17.50;69.10
25616;DHT22;13482;48.234;13.006;2023-05-23T04:21:54;17.60;69.10
25616;DHT22;13482;48.234;13.006;2023-05-23T04:24:22;17.60;69.20
25616;DHT22;13482;48.234;13.006;2023-05-23T04:26:49;17.70;69.30
25616;DHT22;13482;48.234;13.006;2023-05-23T04:29:17;17.70;69.30
25616;DHT22;13482;48.234;13.006;2023-05-23T04:31:44;17.70;69.30
25616;DHT22;13482;48.234;13.006;2023-05-23T04:34:12;17.80;69.40
25616;DHT22;13482;48.234;13.006;2023-05-23T04:36:40;17.80;69.50
25616;DHT22;13482;48.234;13.006;2023-05-23T04:39:10;17.90;69.50
25616;DHT22;13482;48.234;13.006;2023-05-23T04:41:38;18.00;69.60
25616;DHT22;13482;48.234;13.006;2023-05-23T04:44:06;18.10;69.90
25616;DHT22;13482;48.234;13.006;2023-05-23T04:46:36;18.20;70.00
25616;DHT22;13482;48.234;13.006;2023-05-23T04:49:08;18.40;70.00
25616;DHT22;13482;48.234;13.006;2023-05-23T04:51:36;18.50;70.10
25616;DHT22;13482;48.234;13.006;2023-05-23T04:54:04;18.60;70.10
25616;DHT22;13482;48.234;13.006;2023-05-23T04:56:32;18.70;70.20
25616;DHT22;13482;48.234;13.006;2023-05-23T04:58:59;18.90;70.10
25616;DHT22;13482;48.234;13.006;2023-05-23T05:01:27;19.00;70.10
25616;DHT22;13482;48.234;13.006;2023-05-23T05:03:54;19.10;70.00
25616;DHT22;13482;48.234;13.006;2023-05-23T05:06:23;19.30;69.80
25616;DHT22;13482;48.234;13.006;2023-05-23T05:08:51;19.40;69.50
25616;DHT22;13482;48.234;13.006;2023-05-23T05:11:19;19.50;69.40
25616;DHT22;13482;48.234;13.006;2023-05-23T05:13:46;19.60;69.30
25616;DHT22;13482;48.234;13.006;2023-05-23T05:16:14;19.60;69.30
25616;DHT22;13482;48.234;13.006;2023-05-23T05:18:41;19.70;69.30
25616;DHT22;13482;48.234;13.006;2023-05-23T05:21:08;19.80;69.20
25616;DHT22;13482;48.234;13.006;2023-05-23T05:23:36;19.90;69.10
25616;DHT22;13482;48.234;13.006;2023-05-23T05:26:03;19.90;69.00
25616;DHT22;13482;48.234;13.006;2023-05-23T05:28:31;20.00;68.80
25616;DHT22;13482;48.234;13.006;2023-05-23T05:30:58;20.00;68.70
25616;DHT22;13482;48.234;13.006;2023-05-23T05:33:31;20.10;68.70
25616;DHT22;13482;48.234;13.006;2023-05-23T05:36:03;20.10;68.60
25616;DHT22;13482;48.234;13.006;2023-05-23T05:38:33;20.20;68.80
25616;DHT22;13482;48.234;13.006;2023-05-23T05:41:00;20.20;68.60
25616;DHT22;13482;48.234;13.006;2023-05-23T05:43:28;20.30;68.70
25616;DHT22;13482;48.234;13.006;2023-05-23T05:45:55;20.40;68.70
25616;DHT22;13482;48.234;13.006;2023-05-23T05:48:23;20.40;68.70
25616;DHT22;13482;48.234;13.006;2023-05-23T05:50:50;20.50;68.90
25616;DHT22;13482;48.234;13.006;2023-05-23T05:53:18;20.60;69.10
25616;DHT22;13482;48.234;13.006;2023-05-23T05:55:45;20.70;69.00
25616;DHT22;13482;48.234;13.006;2023-05-23T05:58:12;20.80;68.90
25616;DHT22;13482;48.234;13.006;2023-05-23T06:00:41;20.90;68.90
25616;DHT22;13482;48.234;13.006;2023-05-23T06:03:09;21.00;68.80
25616;DHT22;13482;48.234;13.006;2023-05-23T06:05:38;21.10;68.80
25616;DHT22;13482;48.234;13.006;2023-05-23T06:08:05;21.20;68.80
25616;DHT22;13482;48.234;13.006;2023-05-23T06:10:36;21.30;68.80
25616;DHT22;13482;48.234;13.006;2023-05-23T06:13:05;21.40;68.70
25616;DHT22;13482;48.234;13.006;2023-05-23T06:15:33;21.50;68.60
25616;DHT22;13482;48.234;13.006;2023-05-23T06:18:00;21.60;68.50
25616;DHT22;13482;48.234;13.006;2023-05-23T06:20:28;21.70;68.40
25616;DHT22;13482;48.234;13.006;2023-05-23T06:22:56;21.80;68.30
25616;DHT22;13482;48.234;13.006;2023-05-23T06:25:23;21.80;68.30
25616;DHT22;13482;48.234;13.006;2023-05-23T06:27:51;21.90;68.10
25616;DHT22;13482;48.234;13.006;2023-05-23T06:30:18;22.00;68.10
25616;DHT22;13482;48.234;13.006;2023-05-23T06:32:45;22.00;68.10
25616;DHT22;13482;48.234;13.006;2023-05-23T06:35:13;22.10;68.00
25616;DHT22;13482;48.234;13.006;2023-05-23T06:37:40;22.20;68.00
25616;DHT22;13482;48.234;13.006;2023-05-23T06:40:12;22.30;67.90
25616;DHT22;13482;48.234;13.006;2023-05-23T06:42:41;22.40;67.90
25616;DHT22;13482;48.234;13.006;2023-05-23T06:45:08;22.40;68.10
25616;DHT22;13482;48.234;13.006;2023-05-23T06:47:38;22.50;68.00
25616;DHT22;13482;48.234;13.006;2023-05-23T06:50:10;22.60;67.90
25616;DHT22;13482;48.234;13.006;2023-05-23T06:52:37;22.70;67.70
25616;DHT22;13482;48.234;13.006;2023-05-23T06:55:06;22.70;67.60
25616;DHT22;13482;48.234;13.006;2023-05-23T06:57:34;22.80;67.60
25616;DHT22;13482;48.234;13.006;2023-05-23T07:00:02;22.80;67.50
25616;DHT22;13482;48.234;13.006;2023-05-23T07:02:29;22.80;67.50
25616;DHT22;13482;48.234;13.006;2023-05-23T07:04:57;22.80;67.20
25616;DHT22;13482;48.234;13.006;2023-05-23T07:07:24;22.80;67.20
25616;DHT22;13482;48.234;13.006;2023-05-23T07:09:52;22.80;67.20
25616;DHT22;13482;48.234;13.006;2023-05-23T07:12:19;22.80;67.20
25616;DHT22;13482;48.234;13.006;2023-05-23T07:14:47;22.90;67.20
25616;DHT22;13482;48.234;13.006;2023-05-23T07:17:14;22.90;67.20
25616;DHT22;13482;48.234;13.006;2023-05-23T07:19:42;22.90;67.20
25616;DHT22;13482;48.234;13.006;2023-05-23T07:22:09;23.00;67.20
25616;DHT22;13482;48.234;13.006;2023-05-23T07:24:37;23.00;67.40
25616;DHT22;13482;48.234;13.006;2023-05-23T07:27:04;23.20;67.50
25616;DHT22;13482;48.234;13.006;2023-05-23T07:29:32;23.30;67.70
25616;DHT22;13482;48.234;13.006;2023-05-23T07:32:00;23.50;67.80
25616;DHT22;13482;48.234;13.006;2023-05-23T07:34:27;23.70;67.70
25616;DHT22;13482;48.234;13.006;2023-05-23T07:36:55;23.90;67.40
25616;DHT22;13482;48.234;13.006;2023-05-23T07:39:22;24.00;67.10
25616;DHT22;13482;48.234;13.006;2023-05-23T07:41:50;24.20;66.60
25616;DHT22;13482;48.234;13.006;2023-05-23T07:44:18;24.30;66.30
25616;DHT22;13482;48.234;13.006;2023-05-23T07:46:49;24.30;66.00
25616;DHT22;13482;48.234;13.006;2023-05-23T07:49:17;24.40;65.70
25616;DHT22;13482;48.234;13.006;2023-05-23T07:51:45;24.40;65.50
25616;DHT22;13482;48.234;13.006;2023-05-23T07:54:12;24.30;65.30
25616;DHT22;13482;48.234;13.006;2023-05-23T07:56:42;24.30;65.20
25616;DHT22;13482;48.234;13.006;2023-05-23T07:59:10;24.20;65.30
25616;DHT22;13482;48.234;13.006;2023-05-23T08:01:37;24.20;65.70
25616;DHT22;13482;48.234;13.006;2023-05-23T08:04:06;24.20;66.10
25616;DHT22;13482;48.234;13.006;2023-05-23T08:06:33;24.20;66.10
25616;DHT22;13482;48.234;13.006;2023-05-23T08:09:01;24.30;65.80
25616;DHT22;13482;48.234;13.006;2023-05-23T08:11:29;24.40;65.90
25616;DHT22;13482;48.234;13.006;2023-05-23T08:13:56;24.40;65.80
25616;DHT22;13482;48.234;13.006;2023-05-23T08:16:27;24.50;65.20
25616;DHT22;13482;48.234;13.006;2023-05-23T08:18:54;24.50;65.00
25616;DHT22;13482;48.234;13.006;2023-05-23T08:21:22;24.50;64.90
25616;DHT22;13482;48.234;13.006;2023-05-23T08:23:50;24.50;65.10
25616;DHT22;13482;48.234;13.006;2023-05-23T08:26:18;24.50;65.40
25616;DHT22;13482;48.234;13.006;2023-05-23T08:28:46;24.60;65.70
25616;DHT22;13482;48.234;13.006;2023-05-23T08:31:13;24.70;65.90
25616;DHT22;13482;48.234;13.006;2023-05-23T08:33:41;24.80;65.80
25616;DHT22;13482;48.234;13.006;2023-05-23T08:36:10;25.00;65.60
25616;DHT22;13482;48.234;13.006;2023-05-23T08:38:38;25.10;65.40
25616;DHT22;13482;48.234;13.006;2023-05-23T08:41:17;25.20;65.00
25616;DHT22;13482;48.234;13.006;2023-05-23T08:43:46;25.30;65.10
25616;DHT22;13482;48.234;13.006;2023-05-23T08:46:15;25.40;64.80
25616;DHT22;13482;48.234;13.006;2023-05-23T08:48:47;25.50;64.80
25616;DHT22;13482;48.234;13.006;2023-05-23T08:51:18;25.60;64.80
25616;DHT22;13482;48.234;13.006;2023-05-23T08:53:48;25.80;64.80
25616;DHT22;13482;48.234;13.006;2023-05-23T08:56:19;25.90;64.70
25616;DHT22;13482;48.234;13.006;2023-05-23T08:58:47;26.00;64.30
25616;DHT22;13482;48.234;13.006;2023-05-23T09:01:15;26.00;64.10
25616;DHT22;13482;48.234;13.006;2023-05-23T09:03:47;26.10;64.00
25616;DHT22;13482;48.234;13.006;2023-05-23T09:06:20;26.20;63.70
25616;DHT22;13482;48.234;13.006;2023-05-23T09:08:48;26.30;63.60
25616;DHT22;13482;48.234;13.006;2023-05-23T09:11:15;26.40;64.00
25616;DHT22;13482;48.234;13.006;2023-05-23T09:13:43;26.60;63.90
25616;DHT22;13482;48.234;13.006;2023-05-23T09:16:11;26.70;63.80
25616;DHT22;13482;48.234;13.006;2023-05-23T09:18:40;26.80;63.00
25616;DHT22;13482;48.234;13.006;2023-05-23T09:21:10;26.90;62.40
25616;DHT22;13482;48.234;13.006;2023-05-23T09:23:40;27.00;62.50
25616;DHT22;13482;48.234;13.006;2023-05-23T09:26:09;27.00;62.50
25616;DHT22;13482;48.234;13.006;2023-05-23T09:28:38;27.10;62.40
25616;DHT22;13482;48.234;13.006;2023-05-23T09:31:08;27.20;62.30
25616;DHT22;13482;48.234;13.006;2023-05-23T09:33:44;27.30;61.80
25616;DHT22;13482;48.234;13.006;2023-05-23T09:36:17;27.40;61.50
25616;DHT22;13482;48.234;13.006;2023-05-23T09:38:46;27.40;61.70
25616;DHT22;13482;48.234;13.006;2023-05-23T09:41:22;27.50;61.40
25616;DHT22;13482;48.234;13.006;2023-05-23T09:43:51;27.60;61.40
25616;DHT22;13482;48.234;13.006;2023-05-23T09:46:21;27.60;61.30
25616;DHT22;13482;48.234;13.006;2023-05-23T09:48:50;27.60;61.30
25616;DHT22;13482;48.234;13.006;2023-05-23T09:51:20;27.70;61.10
25616;DHT22;13482;48.234;13.006;2023-05-23T09:53:49;27.70;61.30
25616;DHT22;13482;48.234;13.006;2023-05-23T09:56:17;27.80;61.70
25616;DHT22;13482;48.234;13.006;2023-05-23T09:58:49;27.90;61.50
25616;DHT22;13482;48.234;13.006;2023-05-23T10:01:17;28.00;60.60
25616;DHT22;13482;48.234;13.006;2023-05-23T10:03:51;28.10;61.10
25616;DHT22;13482;48.234;13.006;2023-05-23T10:06:31;28.20;60.70
25616;DHT22;13482;48.234;13.006;2023-05-23T10:09:05;28.20;60.00
25616;DHT22;13482;48.234;13.006;2023-05-23T10:14:05;28.20;60.20
25616;DHT22;13482;48.234;13.006;2023-05-23T10:16:54;28.20;60.00
25616;DHT22;13482;48.234;13.006;2023-05-23T10:19:41;28.20;60.30
25616;DHT22;13482;48.234;13.006;2023-05-23T10:22:13;28.20;60.00
25616;DHT22;13482;48.234;13.006;2023-05-23T10:24:44;28.20;60.30
25616;DHT22;13482;48.234;13.006;2023-05-23T10:27:13;28.30;60.30
25616;DHT22;13482;48.234;13.006;2023-05-23T10:29:40;28.30;60.00
25616;DHT22;13482;48.234;13.006;2023-05-23T10:32:09;28.30;60.30
25616;DHT22;13482;48.234;13.006;2023-05-23T10:42:48;27.30;62.30
25616;DHT22;13482;48.234;13.006;2023-05-23T10:45:29;27.20;62.90
25616;DHT22;13482;48.234;13.006;2023-05-23T10:47:59;27.10;63.20
25616;DHT22;13482;48.234;13.006;2023-05-23T10:50:34;27.10;63.80
25616;DHT22;13482;48.234;13.006;2023-05-23T10:53:08;27.10;64.10
25616;DHT22;13482;48.234;13.006;2023-05-23T10:55:48;27.10;63.30
25616;DHT22;13482;48.234;13.006;2023-05-23T10:58:17;27.10;63.80
25616;DHT22;13482;48.234;13.006;2023-05-23T11:00:56;27.10;62.80
25616;DHT22;13482;48.234;13.006;2023-05-23T11:06:38;27.00;61.90
25616;DHT22;13482;48.234;13.006;2023-05-23T11:09:13;26.90;62.10
25616;DHT22;13482;48.234;13.006;2023-05-23T11:11:53;26.80;62.20
25616;DHT22;13482;48.234;13.006;2023-05-23T11:19:39;26.80;61.80
25616;DHT22;13482;48.234;13.006;2023-05-23T11:22:27;26.70;61.80
25616;DHT22;13482;48.234;13.006;2023-05-23T11:24:59;26.70;62.00
25616;DHT22;13482;48.234;13.006;2023-05-23T11:27:40;26.60;62.20
25616;DHT22;13482;48.234;13.006;2023-05-23T11:30:17;26.60;62.40
25616;DHT22;13482;48.234;13.006;2023-05-23T11:32:53;26.70;63.30
25616;DHT22;13482;48.234;13.006;2023-05-23T11:35:22;26.90;63.30
25616;DHT22;13482;48.234;13.006;2023-05-23T11:37:50;27.10;62.80
25616;DHT22;13482;48.234;13.006;2023-05-23T11:40:47;27.20;61.50
25616;DHT22;13482;48.234;13.006;2023-05-23T11:43:15;27.20;60.10
25616;DHT22;13482;48.234;13.006;2023-05-23T11:45:44;27.20;60.70
25616;DHT22;13482;48.234;13.006;2023-05-23T11:48:15;27.00;59.40
25616;DHT22;13482;48.234;13.006;2023-05-23T11:50:49;26.80;59.70
25616;DHT22;13482;48.234;13.006;2023-05-23T11:53:21;26.70;60.20
25616;DHT22;13482;48.234;13.006;2023-05-23T11:55:56;26.60;60.90
25616;DHT22;13482;48.234;13.006;2023-05-23T11:58:29;26.50;61.30
25616;DHT22;13482;48.234;13.006;2023-05-23T12:01:03;26.50;61.00
25616;DHT22;13482;48.234;13.006;2023-05-23T12:03:46;26.40;61.00
25616;DHT22;13482;48.234;13.006;2023-05-23T12:06:19;26.30;61.30
25616;DHT22;13482;48.234;13.006;2023-05-23T12:08:47;26.20;61.60
25616;DHT22;13482;48.234;13.006;2023-05-23T12:11:15;26.20;62.10
25616;DHT22;13482;48.234;13.006;2023-05-23T12:13:44;26.20;62.50
25616;DHT22;13482;48.234;13.006;2023-05-23T12:16:15;26.30;62.60
25616;DHT22;13482;48.234;13.006;2023-05-23T12:18:42;26.40;62.10
25616;DHT22;13482;48.234;13.006;2023-05-23T12:21:10;26.30;61.90
25616;DHT22;13482;48.234;13.006;2023-05-23T12:23:38;26.40;61.90
25616;DHT22;13482;48.234;13.006;2023-05-23T12:26:08;26.30;61.70
25616;DHT22;13482;48.234;13.006;2023-05-23T12:28:42;26.20;61.50
25616;DHT22;13482;48.234;13.006;2023-05-23T12:31:19;26.10;61.60
25616;DHT22;13482;48.234;13.006;2023-05-23T12:33:51;26.00;61.70
25616;DHT22;13482;48.234;13.006;2023-05-23T12:36:28;25.90;61.90
25616;DHT22;13482;48.234;13.006;2023-05-23T12:39:02;25.90;62.10
25616;DHT22;13482;48.234;13.006;2023-05-23T12:41:32;25.80;62.10
25616;DHT22;13482;48.234;13.006;2023-05-23T12:44:00;25.70;62.10
25616;DHT22;13482;48.234;13.006;2023-05-23T12:46:28;25.70;62.20
25616;DHT22;13482;48.234;13.006;2023-05-23T12:48:56;25.60;62.40
25616;DHT22;13482;48.234;13.006;2023-05-23T12:51:23;25.60;62.50
25616;DHT22;13482;48.234;13.006;2023-05-23T12:53:50;25.60;62.50
25616;DHT22;13482;48.234;13.006;2023-05-23T12:56:19;25.50;62.40
25616;DHT22;13482;48.234;13.006;2023-05-23T12:58:48;25.50;62.30
25616;DHT22;13482;48.234;13.006;2023-05-23T13:01:15;25.40;62.40
25616;DHT22;13482;48.234;13.006;2023-05-23T13:03:43;25.40;62.60
25616;DHT22;13482;48.234;13.006;2023-05-23T13:06:11;25.40;62.80
25616;DHT22;13482;48.234;13.006;2023-05-23T13:08:38;25.40;62.80
25616;DHT22;13482;48.234;13.006;2023-05-23T13:11:06;25.40;62.90
25616;DHT22;13482;48.234;13.006;2023-05-23T13:13:34;25.40;63.10
25616;DHT22;13482;48.234;13.006;2023-05-23T13:16:01;25.40;63.20
25616;DHT22;13482;48.234;13.006;2023-05-23T13:18:29;25.50;63.80
25616;DHT22;13482;48.234;13.006;2023-05-23T13:20:56;25.60;63.80
25616;DHT22;13482;48.234;13.006;2023-05-23T13:23:24;25.70;63.80
25616;DHT22;13482;48.234;13.006;2023-05-23T13:25:52;25.90;63.80
25616;DHT22;13482;48.234;13.006;2023-05-23T13:28:19;26.00;63.40
25616;DHT22;13482;48.234;13.006;2023-05-23T13:30:46;26.10;62.80
25616;DHT22;13482;48.234;13.006;2023-05-23T13:33:14;26.10;62.40
25616;DHT22;13482;48.234;13.006;2023-05-23T13:35:43;26.00;61.10
25616;DHT22;13482;48.234;13.006;2023-05-23T13:38:10;25.70;60.70
25616;DHT22;13482;48.234;13.006;2023-05-23T13:40:38;25.40;61.50
25616;DHT22;13482;48.234;13.006;2023-05-23T13:43:06;25.00;61.60
25616;DHT22;13482;48.234;13.006;2023-05-23T13:45:34;24.60;62.20
25616;DHT22;13482;48.234;13.006;2023-05-23T13:48:02;24.20;63.20
25616;DHT22;13482;48.234;13.006;2023-05-23T13:50:29;23.80;63.70
25616;DHT22;13482;48.234;13.006;2023-05-23T13:52:57;23.50;64.30
25616;DHT22;13482;48.234;13.006;2023-05-23T13:55:25;23.30;64.90
25616;DHT22;13482;48.234;13.006;2023-05-23T13:57:53;23.00;65.30
25616;DHT22;13482;48.234;13.006;2023-05-23T14:00:21;22.90;65.80
25616;DHT22;13482;48.234;13.006;2023-05-23T14:02:49;22.80;66.00
25616;DHT22;13482;48.234;13.006;2023-05-23T14:05:16;22.70;66.60
25616;DHT22;13482;48.234;13.006;2023-05-23T14:07:45;22.70;66.80
25616;DHT22;13482;48.234;13.006;2023-05-23T14:10:13;22.60;67.80
25616;DHT22;13482;48.234;13.006;2023-05-23T14:12:43;22.60;67.20
25616;DHT22;13482;48.234;13.006;2023-05-23T14:15:11;22.60;67.30
25616;DHT22;13482;48.234;13.006;2023-05-23T14:17:38;22.60;67.40
25616;DHT22;13482;48.234;13.006;2023-05-23T14:20:06;22.60;67.90
25616;DHT22;13482;48.234;13.006;2023-05-23T14:22:34;22.60;67.90
25616;DHT22;13482;48.234;13.006;2023-05-23T14:25:02;22.60;68.20
25616;DHT22;13482;48.234;13.006;2023-05-23T14:27:31;22.60;68.40
25616;DHT22;13482;48.234;13.006;2023-05-23T14:30:00;22.60;68.70
25616;DHT22;13482;48.234;13.006;2023-05-23T14:32:28;22.60;68.70
25616;DHT22;13482;48.234;13.006;2023-05-23T14:34:55;22.60;68.70
25616;DHT22;13482;48.234;13.006;2023-05-23T14:37:22;22.60;68.60
25616;DHT22;13482;48.234;13.006;2023-05-23T14:39:50;22.60;68.50
25616;DHT22;13482;48.234;13.006;2023-05-23T14:42:18;22.70;68.70
25616;DHT22;13482;48.234;13.006;2023-05-23T14:44:46;22.80;68.90
25616;DHT22;13482;48.234;13.006;2023-05-23T14:47:13;22.80;69.30
25616;DHT22;13482;48.234;13.006;2023-05-23T14:49:41;22.90;69.30
25616;DHT22;13482;48.234;13.006;2023-05-23T14:52:09;23.00;69.50
25616;DHT22;13482;48.234;13.006;2023-05-23T14:54:38;23.10;69.30
25616;DHT22;13482;48.234;13.006;2023-05-23T14:57:11;23.30;69.40
25616;DHT22;13482;48.234;13.006;2023-05-23T14:59:39;23.40;69.20
25616;DHT22;13482;48.234;13.006;2023-05-23T15:02:07;23.50;69.30
25616;DHT22;13482;48.234;13.006;2023-05-23T15:04:35;23.70;69.50
25616;DHT22;13482;48.234;13.006;2023-05-23T15:07:03;23.80;69.80
25616;DHT22;13482;48.234;13.006;2023-05-23T15:09:31;23.90;69.50
25616;DHT22;13482;48.234;13.006;2023-05-23T15:11:58;24.00;69.10
25616;DHT22;13482;48.234;13.006;2023-05-23T15:14:27;24.10;69.10
25616;DHT22;13482;48.234;13.006;2023-05-23T15:16:58;24.20;69.00
25616;DHT22;13482;48.234;13.006;2023-05-23T15:19:36;24.30;69.10
25616;DHT22;13482;48.234;13.006;2023-05-23T15:22:05;24.50;69.00
25616;DHT22;13482;48.234;13.006;2023-05-23T15:24:34;24.60;68.50
25616;DHT22;13482;48.234;13.006;2023-05-23T15:27:05;24.70;68.30
25616;DHT22;13482;48.234;13.006;2023-05-23T15:29:45;24.80;68.00
25616;DHT22;13482;48.234;13.006;2023-05-23T15:32:13;24.80;68.00
25616;DHT22;13482;48.234;13.006;2023-05-23T15:34:40;24.90;67.80
25616;DHT22;13482;48.234;13.006;2023-05-23T15:37:08;24.90;67.90
25616;DHT22;13482;48.234;13.006;2023-05-23T15:39:35;24.90;68.10
25616;DHT22;13482;48.234;13.006;2023-05-23T15:42:03;25.00;68.20
25616;DHT22;13482;48.234;13.006;2023-05-23T15:44:30;25.10;68.00
25616;DHT22;13482;48.234;13.006;2023-05-23T15:46:58;25.20;68.50
25616;DHT22;13482;48.234;13.006;2023-05-23T15:49:25;25.30;68.50
25616;DHT22;13482;48.234;13.006;2023-05-23T15:51:53;25.50;68.30
25616;DHT22;13482;48.234;13.006;2023-05-23T15:54:21;25.60;67.70